Pagrindinis puslapis
METAR-TAF:

METAR-TAF

Oro uostai :

Sundsvalis-Herniosandas, Švedija

platuma: 62-32N, ilguma: 017-27E, Aukštis: 4 m

Dabartinis oras

Ataskaita buvo paskelbta 37 minutes, ne 19:20 UTC
Vėjas 4 kt iš Pietų/Pietryčių
Temperatūra 9°C
Drėgmė 61%
Slėgis 1012 hPa
Matomumas 10 km arba daugiau
nėra debesų žemiau 1500 m ir nėra kamuolinių lietaus debesų

METAR: ESNN 221920Z 15004KT CAVOK 09/02 Q1012

Laikas: 21:57 (19:57 UTC)

Prognozė

Ataskaita buvo paskelbta 1 valandą ir 27 minutes, ne 18:30 UTC
Prognozė galioja nuo 22 metu 19 UTC su 22 metu 22 UTC
Vėjas 10 kt iš Pietryčių
Matomumas 10 km arba daugiau
nėra debesų žemiau 1500 m ir nėra kamuolinių lietaus debesų
Tapsmas
nuo 22 metu 19 UTC su 22 metu 21 UTC
Vėjas 3 kt iš Šiaurės/Šiaurės Rytų

TAF: ESNN 221830Z 2219/2222 13010KT CAVOK BECMG 2219/2221 02003KT

Orai ataskaitas ir orų prognozės (METAR, TAF).

turimą stotys yra geltonos ir raudonos taškus žemėlapyje.

Perkelti pele per norėdami pamatyti stoties vardą.

Tada spustelėkite, norėdami matyti oro stebėjimo ir prognozės.

Norėdami pakeisti žemėlapį: spustelėkite ant žalios mygtukų su juodo kryžiaus žemyn,; žalią mygtuką su brūkšneliu, jei norite nutolinti; arba žalių rodyklių gretimoms žemėlapius.


METAR-TAF: